Time,TemperatureF,DewpointF,PressureIn,WindDirection,WindDirectionDegrees,WindSpeedMPH,WindSpeedGustMPH,Humidity,HourlyPrecipIn,Conditions,Clouds,dailyrainin,SolarRadiationWatts/m^2,SoftwareType,DateUTC
2013-09-29 00:00:00,50.5,49.4,30.29,NE,55,0.0,0.0,96,0.00,,---,0.00,0.00,VWS V14.01,2013-09-29 04:00:00,
2013-09-29 00:01:00,48.6,47.5,30.28,NE,55,0.0,0.0,96,0.00,,---,0.00,0.00,VWS V14.01,2013-09-29 04:01:00,
2013-09-29 00:06:00,48.7,47.6,30.28,NE,55,0.0,0.0,96,0.00,,---,0.00,0.00,VWS V14.01,2013-09-29 04:06:00,
2013-09-29 00:11:00,49.3,48.5,30.28,NE,55,0.0,2.0,97,0.00,,---,0.00,0.00,VWS V14.01,2013-09-29 04:11:00,
2013-09-29 00:16:00,50.1,49.3,30.28,NE,55,0.0,2.0,97,0.00,,---,0.00,0.00,VWS V14.01,2013-09-29 04:16:00,
2013-09-29 00:21:00,50.5,49.7,30.28,NE,55,0.0,2.0,97,0.00,,---,0.00,0.00,VWS V14.01,2013-09-29 04:21:00,
2013-09-29 00:26:00,50.9,50.4,30.28,NE,55,0.0,2.0,98,0.00,,---,0.00,0.00,VWS V14.01,2013-09-29 04:26:00,
2013-09-29 00:30:00,49.1,48.0,30.29,NE,55,0.0,0.0,96,0.00,,---,0.00,0.00,VWS V14.01,2013-09-29 04:30:00,
2013-09-29 00:31:00,51.3,50.5,30.28,NE,55,0.0,2.0,97,0.00,,---,0.00,0.00,VWS V14.01,2013-09-29 04:31:00,
2013-09-29 00:36:00,51.5,50.7,30.28,NE,55,0.0,0.0,97,0.00,,---,0.00,0.00,VWS V14.01,2013-09-29 04:36:00,
2013-09-29 00:41:00,51.6,50.8,30.28,NE,55,0.0,0.0,97,0.00,,---,0.00,0.00,VWS V14.01,2013-09-29 04:41:00,
2013-09-29 00:46:00,51.4,50.6,30.28,NE,55,0.0,0.0,97,0.00,,---,0.00,0.00,VWS V14.01,2013-09-29 04:46:00,
2013-09-29 00:51:00,50.9,50.1,30.28,NE,55,0.0,0.0,97,0.00,,---,0.00,0.00,VWS V14.01,2013-09-29 04:51:00,
2013-09-29 00:56:00,50.6,49.8,30.28,NE,55,0.0,0.0,97,0.00,,---,0.00,0.00,VWS V14.01,2013-09-29 04:56:00,
2013-09-29 01:00:00,48.6,47.5,30.28,NE,55,0.0,0.0,96,0.00,,---,0.00,0.00,VWS V14.01,2013-09-29 05:00:00,
2013-09-29 01:01:00,50.3,49.5,30.28,NE,55,0.0,0.0,97,0.00,,---,0.00,0.00,VWS V14.01,2013-09-29 05:01:00,
2013-09-29 01:06:00,50.2,49.4,30.28,NE,55,0.0,0.0,97,0.00,,---,0.00,0.00,VWS V14.01,2013-09-29 05:06:00,
2013-09-29 01:11:00,50.0,49.2,30.28,NE,55,0.0,0.0,97,0.00,,---,0.00,0.00,VWS V14.01,2013-09-29 05:11:00,
2013-09-29 01:16:00,49.9,49.1,30.28,NE,55,0.0,0.0,97,0.00,,---,0.00,0.00,VWS V14.01,2013-09-29 05:16:00,
2013-09-29 01:21:00,49.8,49.0,30.28,NE,55,0.0,0.0,97,0.00,,---,0.00,0.00,VWS V14.01,2013-09-29 05:21:00,
2013-09-29 01:26:00,49.7,48.9,30.28,NE,55,0.0,0.0,97,0.00,,---,0.00,0.00,VWS V14.01,2013-09-29 05:26:00,
2013-09-29 01:30:00,51.3,50.5,30.28,NE,55,0.0,2.0,97,0.00,,---,0.00,0.00,VWS V14.01,2013-09-29 05:30:00,
2013-09-29 01:31:00,49.7,48.9,30.28,NE,55,0.0,0.0,97,0.00,,---,0.00,0.00,VWS V14.01,2013-09-29 05:31:00,
2013-09-29 01:36:00,49.8,49.0,30.28,NE,55,0.0,0.0,97,0.00,,---,0.00,0.00,VWS V14.01,2013-09-29 05:36:00,
2013-09-29 01:41:00,49.9,49.1,30.27,NE,55,0.0,0.0,97,0.00,,---,0.00,0.00,VWS V14.01,2013-09-29 05:41:00,
2013-09-29 01:46:00,49.8,49.0,30.27,NE,55,0.0,0.0,97,0.00,,---,0.00,0.00,VWS V14.01,2013-09-29 05:46:00,
2013-09-29 01:51:00,49.6,48.8,30.27,NE,55,0.0,0.0,97,0.00,,---,0.00,0.00,VWS V14.01,2013-09-29 05:51:00,
2013-09-29 01:56:00,49.4,48.6,30.27,NE,55,0.0,0.0,97,0.00,,---,0.00,0.00,VWS V14.01,2013-09-29 05:56:00,
2013-09-29 02:00:00,50.3,49.5,30.28,NE,55,0.0,0.0,97,0.00,,---,0.00,0.00,VWS V14.01,2013-09-29 06:00:00,
2013-09-29 02:01:00,49.4,48.6,30.27,NE,55,0.0,0.0,97,0.00,,---,0.00,0.00,VWS V14.01,2013-09-29 06:01:00,
2013-09-29 02:06:00,49.5,48.7,30.27,NE,55,0.0,0.0,97,0.00,,---,0.00,0.00,VWS V14.01,2013-09-29 06:06:00,
2013-09-29 02:11:00,49.4,48.6,30.27,NE,55,0.0,0.0,97,0.00,,---,0.00,0.00,VWS V14.01,2013-09-29 06:11:00,
2013-09-29 02:16:00,49.4,48.6,30.27,NE,55,0.0,0.0,97,0.00,,---,0.00,0.00,VWS V14.01,2013-09-29 06:16:00,
2013-09-29 02:21:00,49.4,48.6,30.27,NE,55,0.0,0.0,97,0.00,,---,0.00,0.00,VWS V14.01,2013-09-29 06:21:00,
2013-09-29 02:26:00,49.4,48.6,30.27,NE,55,0.0,0.0,97,0.00,,---,0.00,0.00,VWS V14.01,2013-09-29 06:26:00,
2013-09-29 02:30:00,49.7,48.9,30.28,NE,55,0.0,0.0,97,0.00,,---,0.00,0.00,VWS V14.01,2013-09-29 06:30:00,
2013-09-29 02:31:00,49.4,48.6,30.26,NE,55,0.0,0.0,97,0.00,,---,0.00,0.00,VWS V14.01,2013-09-29 06:31:00,
2013-09-29 02:36:00,49.4,48.6,30.26,NE,55,0.0,0.0,97,0.00,,---,0.00,0.00,VWS V14.01,2013-09-29 06:36:00,
2013-09-29 02:41:00,49.4,48.6,30.26,NE,55,0.0,0.0,97,0.00,,---,0.00,0.00,VWS V14.01,2013-09-29 06:41:00,
2013-09-29 02:46:00,49.4,48.6,30.26,NE,55,0.0,0.0,97,0.00,,---,0.00,0.00,VWS V14.01,2013-09-29 06:46:00,
2013-09-29 02:51:00,49.5,48.7,30.26,NE,55,0.0,0.0,97,0.00,,---,0.00,0.00,VWS V14.01,2013-09-29 06:51:00,
2013-09-29 02:56:00,49.5,48.7,30.26,NE,55,0.0,0.0,97,0.00,,---,0.00,0.00,VWS V14.01,2013-09-29 06:56:00,
2013-09-29 03:00:00,49.4,48.6,30.27,NE,55,0.0,0.0,97,0.00,,---,0.00,0.00,VWS V14.01,2013-09-29 07:00:00,
2013-09-29 03:01:00,49.4,48.6,30.26,NE,55,0.0,0.0,97,0.00,,---,0.00,0.00,VWS V14.01,2013-09-29 07:01:00,
2013-09-29 03:06:00,49.1,48.3,30.26,NE,55,0.0,0.0,97,0.00,,---,0.00,0.00,VWS V14.01,2013-09-29 07:06:00,
2013-09-29 03:11:00,48.2,47.1,30.26,NE,55,0.0,0.0,96,0.00,,---,0.00,0.00,VWS V14.01,2013-09-29 07:11:00,
2013-09-29 03:16:00,47.6,46.5,30.26,NE,55,0.0,0.0,96,0.00,,---,0.00,0.00,VWS V14.01,2013-09-29 07:16:00,
2013-09-29 03:21:00,47.3,46.2,30.25,NE,55,0.0,0.0,96,0.00,,---,0.00,0.00,VWS V14.01,2013-09-29 07:21:00,
2013-09-29 03:26:00,47.2,46.4,30.25,NE,55,0.0,0.0,97,0.00,,---,0.00,0.00,VWS V14.01,2013-09-29 07:26:00,
2013-09-29 03:30:00,49.4,48.6,30.26,NE,55,0.0,0.0,97,0.00,,---,0.00,0.00,VWS V14.01,2013-09-29 07:30:00,
2013-09-29 03:31:00,47.1,46.3,30.25,NE,55,0.0,0.0,97,0.00,,---,0.00,0.00,VWS V14.01,2013-09-29 07:31:00,
2013-09-29 03:36:00,47.0,46.2,30.25,NE,55,0.0,0.0,97,0.00,,---,0.00,0.00,VWS V14.01,2013-09-29 07:36:00,
2013-09-29 03:41:00,47.0,46.2,30.25,NE,55,0.0,0.0,97,0.00,,---,0.00,0.00,VWS V14.01,2013-09-29 07:41:00,
2013-09-29 03:46:00,47.0,46.2,30.25,NE,55,0.0,0.0,97,0.00,,---,0.00,0.00,VWS V14.01,2013-09-29 07:46:00,
2013-09-29 03:51:00,47.2,46.4,30.25,NE,55,0.0,0.0,97,0.00,,---,0.00,0.00,VWS V14.01,2013-09-29 07:51:00,
2013-09-29 03:56:00,47.4,46.9,30.24,NE,55,0.0,0.0,98,0.00,,---,0.00,0.00,VWS V14.01,2013-09-29 07:56:00,
2013-09-29 04:00:00,49.4,48.6,30.26,NE,55,0.0,0.0,97,0.00,,---,0.00,0.00,VWS V14.01,2013-09-29 08:00:00,
2013-09-29 04:01:00,47.5,47.0,30.24,NE,55,0.0,0.0,98,0.00,,---,0.00,0.00,VWS V14.01,2013-09-29 08:01:00,
2013-09-29 04:06:00,47.5,46.7,30.25,NE,55,0.0,0.0,97,0.00,,---,0.00,0.00,VWS V14.01,2013-09-29 08:06:00,
2013-09-29 04:11:00,47.5,46.7,30.25,NE,55,0.0,0.0,97,0.00,,---,0.00,0.00,VWS V14.01,2013-09-29 08:11:00,
2013-09-29 04:16:00,47.6,46.8,30.25,NE,55,0.0,0.0,97,0.00,,---,0.00,0.00,VWS V14.01,2013-09-29 08:16:00,
2013-09-29 04:21:00,47.9,47.1,30.25,NE,55,0.0,0.0,97,0.00,,---,0.00,0.00,VWS V14.01,2013-09-29 08:21:00,
2013-09-29 04:26:00,47.9,47.4,30.24,NE,55,0.0,0.0,98,0.00,,---,0.00,0.00,VWS V14.01,2013-09-29 08:26:00,
2013-09-29 04:30:00,47.1,46.3,30.25,NE,55,0.0,0.0,97,0.00,,---,0.00,0.00,VWS V14.01,2013-09-29 08:30:00,
2013-09-29 04:31:00,47.9,47.1,30.24,NE,55,0.0,0.0,97,0.00,,---,0.00,0.00,VWS V14.01,2013-09-29 08:31:00,
2013-09-29 04:36:00,47.9,47.4,30.24,NE,55,0.0,0.0,98,0.00,,---,0.00,0.00,VWS V14.01,2013-09-29 08:36:00,
2013-09-29 04:41:00,48.0,47.5,30.24,NE,55,0.0,0.0,98,0.00,,---,0.00,0.00,VWS V14.01,2013-09-29 08:41:00,
2013-09-29 04:46:00,48.0,47.5,30.24,NE,55,0.0,0.0,98,0.00,,---,0.00,0.00,VWS V14.01,2013-09-29 08:46:00,
2013-09-29 04:51:00,48.0,47.5,30.24,NE,55,0.0,0.0,98,0.00,,---,0.00,0.00,VWS V14.01,2013-09-29 08:51:00,
2013-09-29 04:56:00,48.0,47.5,30.24,NE,55,0.0,0.0,98,0.00,,---,0.00,0.00,VWS V14.01,2013-09-29 08:56:00,
2013-09-29 05:00:00,47.5,47.0,30.25,NE,55,0.0,0.0,98,0.00,,---,0.00,0.00,VWS V14.01,2013-09-29 09:00:00,
2013-09-29 05:01:00,47.9,47.1,30.24,NE,55,0.0,0.0,97,0.00,,---,0.00,0.00,VWS V14.01,2013-09-29 09:01:00,
2013-09-29 05:06:00,47.9,47.1,30.24,NE,55,0.0,0.0,97,0.00,,---,0.00,0.00,VWS V14.01,2013-09-29 09:06:00,
2013-09-29 05:11:00,47.7,46.9,30.24,NE,55,0.0,0.0,97,0.00,,---,0.00,0.00,VWS V14.01,2013-09-29 09:11:00,
2013-09-29 05:16:00,47.6,46.8,30.24,NE,55,0.0,0.0,97,0.00,,---,0.00,0.00,VWS V14.01,2013-09-29 09:16:00,
2013-09-29 05:21:00,47.5,46.7,30.24,NE,55,0.0,0.0,97,0.00,,---,0.00,0.00,VWS V14.01,2013-09-29 09:21:00,
2013-09-29 05:26:00,47.5,47.0,30.24,NE,55,0.0,0.0,98,0.00,,---,0.00,0.00,VWS V14.01,2013-09-29 09:26:00,
2013-09-29 05:30:00,47.9,47.1,30.24,NE,55,0.0,0.0,97,0.00,,---,0.00,0.00,VWS V14.01,2013-09-29 09:30:00,
2013-09-29 05:31:00,47.6,47.1,30.24,NE,55,0.0,0.0,98,0.00,,---,0.00,0.00,VWS V14.01,2013-09-29 09:31:00,
2013-09-29 05:36:00,47.7,47.2,30.24,NE,55,0.0,0.0,98,0.00,,---,0.00,0.00,VWS V14.01,2013-09-29 09:36:00,
2013-09-29 05:41:00,48.0,47.5,30.24,NE,55,0.0,0.0,98,0.00,,---,0.00,0.00,VWS V14.01,2013-09-29 09:41:00,
2013-09-29 05:46:00,48.2,47.7,30.24,NE,55,0.0,0.0,98,0.00,,---,0.00,0.00,VWS V14.01,2013-09-29 09:46:00,
2013-09-29 05:51:00,48.2,47.7,30.24,NE,55,0.0,0.0,98,0.00,,---,0.00,0.00,VWS V14.01,2013-09-29 09:51:00,
2013-09-29 05:56:00,48.1,47.6,30.24,NE,55,0.0,0.0,98,0.00,,---,0.00,0.00,VWS V14.01,2013-09-29 09:56:00,
2013-09-29 06:00:00,47.9,47.1,30.24,NE,55,0.0,0.0,97,0.00,,---,0.00,0.00,VWS V14.01,2013-09-29 10:00:00,
2013-09-29 06:01:00,48.0,47.5,30.24,NE,55,0.0,0.0,98,0.00,,---,0.00,0.00,VWS V14.01,2013-09-29 10:01:00,
2013-09-29 06:06:00,47.9,47.4,30.24,NE,55,0.0,0.0,98,0.00,,---,0.00,0.00,VWS V14.01,2013-09-29 10:06:00,
2013-09-29 06:11:00,47.8,47.0,30.24,NE,55,0.0,0.0,97,0.00,,---,0.00,0.00,VWS V14.01,2013-09-29 10:11:00,
2013-09-29 06:16:00,47.6,46.8,30.24,NE,55,0.0,0.0,97,0.00,,---,0.00,0.00,VWS V14.01,2013-09-29 10:16:00,
2013-09-29 06:21:00,46.9,46.1,30.24,NE,55,0.0,0.0,97,0.00,,---,0.00,0.00,VWS V14.01,2013-09-29 10:21:00,
2013-09-29 06:26:00,46.2,45.1,30.24,NE,55,0.0,0.0,96,0.00,,---,0.00,0.00,VWS V14.01,2013-09-29 10:26:00,
2013-09-29 06:30:00,47.6,47.1,30.24,NE,55,0.0,0.0,98,0.00,,---,0.00,0.00,VWS V14.01,2013-09-29 10:30:00,
2013-09-29 06:31:00,45.9,45.1,30.24,NE,55,0.0,0.0,97,0.00,,---,0.00,0.00,VWS V14.01,2013-09-29 10:31:00,
2013-09-29 06:36:00,45.9,45.1,30.24,NE,55,0.0,0.0,97,0.00,,---,0.00,0.00,VWS V14.01,2013-09-29 10:36:00,
2013-09-29 06:41:00,46.0,45.2,30.24,NE,55,0.0,0.0,97,0.00,,---,0.00,0.00,VWS V14.01,2013-09-29 10:41:00,
2013-09-29 06:46:00,46.0,45.2,30.24,NE,55,0.0,0.0,97,0.00,,---,0.00,0.00,VWS V14.01,2013-09-29 10:46:00,
2013-09-29 06:51:00,45.9,45.1,30.24,NE,55,0.0,0.0,97,0.00,,---,0.00,0.00,VWS V14.01,2013-09-29 10:51:00,
2013-09-29 06:56:00,45.8,45.0,30.24,NE,55,0.0,0.0,97,0.00,,---,0.00,5.00,VWS V14.01,2013-09-29 10:56:00,
2013-09-29 07:00:00,48.0,47.5,30.24,NE,55,0.0,0.0,98,0.00,,---,0.00,0.00,VWS V14.01,2013-09-29 11:00:00,
2013-09-29 07:01:00,45.8,45.0,30.24,NE,55,0.0,0.0,97,0.00,,---,0.00,7.00,VWS V14.01,2013-09-29 11:01:00,
2013-09-29 07:06:00,45.8,45.3,30.24,NE,55,0.0,0.0,98,0.00,,---,0.00,9.00,VWS V14.01,2013-09-29 11:06:00,
2013-09-29 07:11:00,45.8,45.3,30.24,NE,55,0.0,0.0,98,0.00,,---,0.00,14.00,VWS V14.01,2013-09-29 11:11:00,
2013-09-29 07:16:00,45.8,45.3,30.24,NE,55,0.0,0.0,98,0.00,,---,0.00,23.00,VWS V14.01,2013-09-29 11:16:00,
2013-09-29 07:21:00,46.1,45.6,30.24,NE,55,0.0,0.0,98,0.00,,---,0.00,35.00,VWS V14.01,2013-09-29 11:21:00,
2013-09-29 07:26:00,46.6,46.1,30.24,NE,55,0.0,0.0,98,0.00,,---,0.00,49.00,VWS V14.01,2013-09-29 11:26:00,
2013-09-29 07:30:00,45.9,45.1,30.24,NE,55,0.0,0.0,97,0.00,,---,0.00,0.00,VWS V14.01,2013-09-29 11:30:00,
2013-09-29 07:31:00,47.4,46.9,30.24,NE,55,0.0,0.0,98,0.00,,---,0.00,63.00,VWS V14.01,2013-09-29 11:31:00,
2013-09-29 07:36:00,48.4,47.9,30.25,NE,55,0.0,0.0,98,0.00,,---,0.00,77.00,VWS V14.01,2013-09-29 11:36:00,
2013-09-29 07:41:00,48.9,48.4,30.25,NE,55,0.0,0.0,98,0.00,,---,0.00,91.00,VWS V14.01,2013-09-29 11:41:00,
2013-09-29 07:46:00,49.3,48.8,30.25,NE,55,0.0,0.0,98,0.00,,---,0.00,105.00,VWS V14.01,2013-09-29 11:46:00,
2013-09-29 07:51:00,49.9,49.4,30.25,NE,55,0.0,0.0,98,0.00,,---,0.00,120.00,VWS V14.01,2013-09-29 11:51:00,
2013-09-29 07:56:00,50.8,50.3,30.25,NE,55,0.0,0.0,98,0.00,,---,0.00,134.00,VWS V14.01,2013-09-29 11:56:00,
2013-09-29 08:00:00,45.8,45.3,30.24,NE,55,0.0,0.0,98,0.00,,---,0.00,7.00,VWS V14.01,2013-09-29 12:00:00,
2013-09-29 08:01:00,51.3,50.8,30.25,NE,55,0.0,0.0,98,0.00,,---,0.00,160.00,VWS V14.01,2013-09-29 12:01:00,
2013-09-29 08:06:00,51.7,51.2,30.25,NE,55,0.0,0.0,98,0.00,,---,0.00,165.00,VWS V14.01,2013-09-29 12:06:00,
2013-09-29 08:11:00,51.9,51.4,30.25,NE,55,0.0,0.0,98,0.00,,---,0.00,197.00,VWS V14.01,2013-09-29 12:11:00,
2013-09-29 08:16:00,52.3,51.8,30.25,NE,55,0.0,0.0,98,0.00,,---,0.00,211.00,VWS V14.01,2013-09-29 12:16:00,
2013-09-29 08:21:00,52.5,52.0,30.25,NE,55,0.0,0.0,98,0.00,,---,0.00,223.00,VWS V14.01,2013-09-29 12:21:00,
2013-09-29 08:26:00,53.0,52.5,30.25,NE,55,0.0,0.0,98,0.00,,---,0.00,241.00,VWS V14.01,2013-09-29 12:26:00,
2013-09-29 08:30:00,47.7,47.2,30.24,NE,55,0.0,0.0,98,0.00,,---,0.00,69.00,VWS V14.01,2013-09-29 12:30:00,
2013-09-29 08:31:00,53.6,53.0,30.25,NE,55,0.0,0.0,98,0.00,,---,0.00,262.00,VWS V14.01,2013-09-29 12:31:00,
2013-09-29 08:36:00,54.1,53.5,30.25,NE,55,0.0,0.0,98,0.00,,---,0.00,283.00,VWS V14.01,2013-09-29 12:36:00,
2013-09-29 08:41:00,55.0,54.2,30.25,NE,55,0.0,2.0,97,0.00,,---,0.00,290.00,VWS V14.01,2013-09-29 12:41:00,
2013-09-29 08:46:00,55.7,54.6,30.25,NE,55,0.0,2.0,96,0.00,,---,0.00,323.00,VWS V14.01,2013-09-29 12:46:00,
2013-09-29 08:51:00,56.2,54.8,30.25,NE,55,0.0,2.0,95,0.00,,---,0.00,251.00,VWS V14.01,2013-09-29 12:51:00,
2013-09-29 08:56:00,56.6,54.6,30.25,NE,55,0.0,2.0,93,0.00,,---,0.00,149.00,VWS V14.01,2013-09-29 12:56:00,
2013-09-29 09:00:00,51.4,50.9,30.25,NE,55,0.0,0.0,98,0.00,,---,0.00,167.00,VWS V14.01,2013-09-29 13:00:00,
2013-09-29 09:01:00,56.9,54.6,30.25,NE,55,0.0,2.0,92,0.00,,---,0.00,376.00,VWS V14.01,2013-09-29 13:01:00,
2013-09-29 09:06:00,57.4,54.8,30.25,NE,55,0.0,0.0,91,0.00,,---,0.00,376.00,VWS V14.01,2013-09-29 13:06:00,
2013-09-29 09:11:00,58.1,55.5,30.25,NE,55,0.0,0.0,91,0.00,,---,0.00,380.00,VWS V14.01,2013-09-29 13:11:00,
2013-09-29 09:16:00,58.7,55.2,30.24,NE,55,0.0,0.0,88,0.00,,---,0.00,392.00,VWS V14.01,2013-09-29 13:16:00,
2013-09-29 09:21:00,59.1,55.5,30.24,NE,55,0.0,0.0,88,0.00,,---,0.00,403.00,VWS V14.01,2013-09-29 13:21:00,
2013-09-29 09:26:00,59.8,55.6,30.24,NE,55,0.0,0.0,86,0.00,,---,0.00,417.00,VWS V14.01,2013-09-29 13:26:00,
2013-09-29 09:30:00,53.8,53.2,30.25,NE,55,0.0,0.0,98,0.00,,---,0.00,264.00,VWS V14.01,2013-09-29 13:30:00,
2013-09-29 09:31:00,60.4,56.8,30.24,NE,55,0.0,0.0,88,0.00,,---,0.00,318.00,VWS V14.01,2013-09-29 13:31:00,
2013-09-29 09:36:00,61.0,56.8,30.24,SE,131,0.0,0.0,86,0.00,,---,0.00,443.00,VWS V14.01,2013-09-29 13:36:00,
2013-09-29 09:41:00,61.6,57.4,30.24,SE,131,0.0,0.0,86,0.00,,---,0.00,464.00,VWS V14.01,2013-09-29 13:41:00,
2013-09-29 09:46:00,62.2,57.0,30.24,SE,131,0.0,0.0,83,0.00,,---,0.00,459.00,VWS V14.01,2013-09-29 13:46:00,
2013-09-29 09:51:00,62.5,56.9,30.24,SE,131,0.0,2.0,82,0.00,,---,0.00,499.00,VWS V14.01,2013-09-29 13:51:00,
2013-09-29 10:00:00,57.1,54.8,30.25,NE,55,0.0,2.0,92,0.00,,---,0.00,371.00,VWS V14.01,2013-09-29 14:00:00,
2013-09-29 10:01:00,62.5,56.9,30.24,SE,131,0.0,2.0,82,0.00,,---,0.00,499.00,VWS V14.01,2013-09-29 14:01:00,
2013-09-29 10:06:00,63.6,57.3,30.24,SE,131,0.0,0.0,80,0.00,,---,0.00,506.00,VWS V14.01,2013-09-29 14:06:00,
2013-09-29 10:11:00,64.4,58.1,30.24,SE,140,0.0,3.0,80,0.00,,---,0.00,566.00,VWS V14.01,2013-09-29 14:11:00,
2013-09-29 10:16:00,64.8,56.7,30.24,NE,53,0.0,4.0,75,0.00,,---,0.00,566.00,VWS V14.01,2013-09-29 14:16:00,
2013-09-29 10:21:00,65.2,56.7,30.24,NE,53,0.0,4.0,74,0.00,,---,0.00,629.00,VWS V14.01,2013-09-29 14:21:00,
2013-09-29 10:26:00,65.5,57.4,30.24,NE,53,0.0,4.0,75,0.00,,---,0.00,374.00,VWS V14.01,2013-09-29 14:26:00,
2013-09-29 10:30:00,60.6,56.7,30.24,SE,131,0.0,0.0,87,0.00,,---,0.00,443.00,VWS V14.01,2013-09-29 14:30:00,
2013-09-29 10:31:00,65.3,57.2,30.24,NE,53,0.0,4.0,75,0.00,,---,0.00,230.00,VWS V14.01,2013-09-29 14:31:00,
2013-09-29 10:36:00,65.4,56.5,30.24,NE,53,0.0,0.0,73,0.00,,---,0.00,698.00,VWS V14.01,2013-09-29 14:36:00,
2013-09-29 10:41:00,65.8,57.7,30.24,NE,53,0.0,0.0,75,0.00,,---,0.00,638.00,VWS V14.01,2013-09-29 14:41:00,
2013-09-29 10:46:00,66.1,56.4,30.24,NE,53,0.0,0.0,71,0.00,,---,0.00,636.00,VWS V14.01,2013-09-29 14:46:00,
2013-09-29 10:51:00,66.5,57.6,30.24,NE,53,0.0,1.0,73,0.00,,---,0.00,619.00,VWS V14.01,2013-09-29 14:51:00,
2013-09-29 10:56:00,66.4,57.1,30.23,WSW,258,0.0,3.0,72,0.00,,---,0.00,619.00,VWS V14.01,2013-09-29 14:56:00,
2013-09-29 11:00:00,63.2,57.6,30.24,SE,131,0.0,2.0,82,0.00,,---,0.00,499.00,VWS V14.01,2013-09-29 15:00:00,
2013-09-29 11:01:00,66.4,57.5,30.24,WSW,258,3.0,3.0,73,0.00,,---,0.00,626.00,VWS V14.01,2013-09-29 15:01:00,
2013-09-29 11:06:00,66.4,57.5,30.23,WSW,258,0.0,0.0,73,0.00,,---,0.00,635.00,VWS V14.01,2013-09-29 15:06:00,
2013-09-29 11:11:00,66.9,58.7,30.23,NE,50,0.0,3.0,75,0.00,,---,0.00,643.00,VWS V14.01,2013-09-29 15:11:00,
2013-09-29 11:16:00,67.0,58.5,30.23,NE,50,0.0,3.0,74,0.00,,---,0.00,650.00,VWS V14.01,2013-09-29 15:16:00,
2013-09-29 11:21:00,66.7,58.9,30.23,NE,50,0.0,3.0,76,0.00,,---,0.00,656.00,VWS V14.01,2013-09-29 15:21:00,
2013-09-29 11:26:00,66.5,58.0,30.23,East,80,0.0,3.0,74,0.00,,---,0.00,661.00,VWS V14.01,2013-09-29 15:26:00,
2013-09-29 11:30:00,65.3,57.2,30.24,NE,53,0.0,4.0,75,0.00,,---,0.00,230.00,VWS V14.01,2013-09-29 15:30:00,
2013-09-29 11:31:00,67.1,58.9,30.23,East,80,0.0,3.0,75,0.00,,---,0.00,664.00,VWS V14.01,2013-09-29 15:31:00,
2013-09-29 11:36:00,67.5,58.2,30.22,NNE,28,0.0,3.0,72,0.00,,---,0.00,675.00,VWS V14.01,2013-09-29 15:36:00,
2013-09-29 11:41:00,67.9,58.2,30.22,ENE,69,0.0,3.0,71,0.00,,---,0.00,684.00,VWS V14.01,2013-09-29 15:41:00,
2013-09-29 11:46:00,68.3,59.3,30.22,ENE,69,0.0,3.0,73,0.00,,---,0.00,691.00,VWS V14.01,2013-09-29 15:46:00,
2013-09-29 11:51:00,68.6,58.8,30.22,South,175,0.0,3.0,71,0.00,,---,0.00,694.00,VWS V14.01,2013-09-29 15:51:00,
2013-09-29 11:56:00,69.0,59.6,30.21,SSE,147,0.0,3.0,72,0.00,,---,0.00,696.00,VWS V14.01,2013-09-29 15:56:00,
2013-09-29 12:00:00,66.3,56.6,30.24,WSW,258,0.0,3.0,71,0.00,,---,0.00,628.00,VWS V14.01,2013-09-29 16:00:00,
2013-09-29 12:01:00,69.1,58.5,30.21,NE,52,0.0,3.0,69,0.00,,---,0.00,700.00,VWS V14.01,2013-09-29 16:01:00,
2013-09-29 12:06:00,69.3,58.3,30.21,WNW,297,0.0,3.0,68,0.00,,---,0.00,707.00,VWS V14.01,2013-09-29 16:06:00,
2013-09-29 12:11:00,69.7,58.3,30.20,ESE,111,4.0,4.0,67,0.00,,---,0.00,714.00,VWS V14.01,2013-09-29 16:11:00,
2013-09-29 12:16:00,70.0,55.0,30.21,ENE,64,0.0,4.0,59,0.00,,---,0.00,717.00,VWS V14.01,2013-09-29 16:16:00,
2013-09-29 12:21:00,69.9,55.4,30.20,ENE,64,0.0,4.0,60,0.00,,---,0.00,724.00,VWS V14.01,2013-09-29 16:21:00,
2013-09-29 12:26:00,70.1,55.1,30.20,ENE,64,0.0,4.0,59,0.00,,---,0.00,737.00,VWS V14.01,2013-09-29 16:26:00,
2013-09-29 12:30:00,67.2,59.0,30.23,East,80,0.0,3.0,75,0.00,,---,0.00,668.00,VWS V14.01,2013-09-29 16:30:00,
2013-09-29 12:31:00,70.5,52.6,30.19,ESE,115,0.0,4.0,53,0.00,,---,0.00,733.00,VWS V14.01,2013-09-29 16:31:00,
2013-09-29 12:36:00,70.6,55.6,30.19,ESE,112,0.0,5.0,59,0.00,,---,0.00,728.00,VWS V14.01,2013-09-29 16:36:00,
2013-09-29 12:41:00,70.8,54.8,30.19,ESE,109,4.0,6.0,57,0.00,,---,0.00,735.00,VWS V14.01,2013-09-29 16:41:00,
2013-09-29 12:46:00,71.1,55.1,30.19,East,96,0.0,6.0,57,0.00,,---,0.00,744.00,VWS V14.01,2013-09-29 16:46:00,
2013-09-29 12:51:00,71.0,55.0,30.19,SSE,163,0.0,6.0,57,0.00,,---,0.00,719.00,VWS V14.01,2013-09-29 16:51:00,
2013-09-29 12:56:00,71.3,54.8,30.19,SE,124,0.0,6.0,56,0.00,,---,0.00,712.00,VWS V14.01,2013-09-29 16:56:00,
2013-09-29 13:00:00,69.1,58.5,30.21,NE,52,0.0,3.0,69,0.00,,---,0.00,701.00,VWS V14.01,2013-09-29 17:00:00,
2013-09-29 13:01:00,71.6,54.6,30.18,ESE,120,0.0,6.0,55,0.00,,---,0.00,712.00,VWS V14.01,2013-09-29 17:01:00,
2013-09-29 13:06:00,71.1,52.6,30.18,NE,44,0.0,4.0,52,0.00,,---,0.00,715.00,VWS V14.01,2013-09-29 17:06:00,
2013-09-29 13:11:00,71.1,54.1,30.18,ESE,117,0.0,4.0,55,0.00,,---,0.00,729.00,VWS V14.01,2013-09-29 17:11:00,
2013-09-29 13:16:00,71.5,53.0,30.18,SE,126,0.0,5.0,52,0.00,,---,0.00,724.00,VWS V14.01,2013-09-29 17:16:00,
2013-09-29 13:21:00,71.5,53.0,30.18,ESE,103,0.0,5.0,52,0.00,,---,0.00,707.00,VWS V14.01,2013-09-29 17:21:00,
2013-09-29 13:26:00,71.3,51.7,30.18,ESE,104,0.0,5.0,50,0.00,,---,0.00,701.00,VWS V14.01,2013-09-29 17:26:00,
2013-09-29 13:30:00,70.4,52.0,30.19,ESE,115,0.0,4.0,52,0.00,,---,0.00,729.00,VWS V14.01,2013-09-29 17:30:00,
2013-09-29 13:31:00,71.4,53.4,30.18,ENE,66,0.0,5.0,53,0.00,,---,0.00,693.00,VWS V14.01,2013-09-29 17:31:00,
2013-09-29 13:36:00,71.7,54.7,30.17,East,100,2.0,3.0,55,0.00,,---,0.00,689.00,VWS V14.01,2013-09-29 17:36:00,
2013-09-29 13:41:00,71.6,53.1,30.17,East,101,0.0,3.0,52,0.00,,---,0.00,684.00,VWS V14.01,2013-09-29 17:41:00,
2013-09-29 13:46:00,71.6,53.6,30.17,SE,127,0.0,3.0,53,0.00,,---,0.00,680.00,VWS V14.01,2013-09-29 17:46:00,
2013-09-29 13:51:00,71.9,53.9,30.17,WNW,284,0.0,3.0,53,0.00,,---,0.00,675.00,VWS V14.01,2013-09-29 17:51:00,
2013-09-29 13:56:00,71.5,53.5,30.16,NNE,30,0.0,3.0,53,0.00,,---,0.00,668.00,VWS V14.01,2013-09-29 17:56:00,
2013-09-29 14:00:00,71.7,55.7,30.18,ESE,120,0.0,6.0,57,0.00,,---,0.00,714.00,VWS V14.01,2013-09-29 18:00:00,
2013-09-29 14:01:00,72.0,52.4,30.16,NNE,25,0.0,3.0,50,0.00,,---,0.00,659.00,VWS V14.01,2013-09-29 18:01:00,
2013-09-29 14:06:00,71.7,50.4,30.16,NNE,25,0.0,0.0,47,0.00,,---,0.00,652.00,VWS V14.01,2013-09-29 18:06:00,
2013-09-29 14:11:00,71.9,53.3,30.16,NNE,28,0.0,3.0,52,0.00,,---,0.00,647.00,VWS V14.01,2013-09-29 18:11:00,
2013-09-29 14:16:00,72.2,53.1,30.16,NE,48,0.0,3.0,51,0.00,,---,0.00,640.00,VWS V14.01,2013-09-29 18:16:00,
2013-09-29 14:21:00,72.4,52.2,30.15,WNW,292,0.0,4.0,49,0.00,,---,0.00,635.00,VWS V14.01,2013-09-29 18:21:00,
2013-09-29 14:26:00,72.7,53.5,30.15,NE,55,0.0,4.0,51,0.00,,---,0.00,624.00,VWS V14.01,2013-09-29 18:26:00,
2013-09-29 14:30:00,71.5,54.0,30.18,ENE,78,0.0,5.0,54,0.00,,---,0.00,689.00,VWS V14.01,2013-09-29 18:30:00,
2013-09-29 14:31:00,72.7,54.6,30.15,ENE,74,0.0,4.0,53,0.00,,---,0.00,617.00,VWS V14.01,2013-09-29 18:31:00,
2013-09-29 14:36:00,73.1,52.3,30.15,ENE,74,0.0,4.0,48,0.00,,---,0.00,610.00,VWS V14.01,2013-09-29 18:36:00,
2013-09-29 14:41:00,73.4,50.8,30.14,ENE,74,0.0,4.0,45,0.00,,---,0.00,601.00,VWS V14.01,2013-09-29 18:41:00,
2013-09-29 14:46:00,73.5,51.5,30.14,ENE,74,0.0,4.0,46,0.00,,---,0.00,594.00,VWS V14.01,2013-09-29 18:46:00,
2013-09-29 14:51:00,73.6,52.7,30.14,ENE,74,0.0,4.0,48,0.00,,---,0.00,585.00,VWS V14.01,2013-09-29 18:51:00,
2013-09-29 14:56:00,73.4,52.0,30.14,ENE,74,0.0,4.0,47,0.00,,---,0.00,575.00,VWS V14.01,2013-09-29 18:56:00,
2013-09-29 15:00:00,71.8,50.5,30.16,NNE,25,0.0,3.0,47,0.00,,---,0.00,659.00,VWS V14.01,2013-09-29 19:00:00,
2013-09-29 15:01:00,73.3,51.3,30.14,WNW,297,0.0,4.0,46,0.00,,---,0.00,566.00,VWS V14.01,2013-09-29 19:01:00,
2013-09-29 15:06:00,73.2,52.4,30.14,WNW,297,0.0,3.0,48,0.00,,---,0.00,555.00,VWS V14.01,2013-09-29 19:06:00,
2013-09-29 15:11:00,73.7,52.8,30.14,WNW,297,0.0,3.0,48,0.00,,---,0.00,545.00,VWS V14.01,2013-09-29 19:11:00,
2013-09-29 15:16:00,73.7,52.2,30.14,WNW,297,0.0,3.0,47,0.00,,---,0.00,533.00,VWS V14.01,2013-09-29 19:16:00,
2013-09-29 15:21:00,73.3,51.9,30.13,WNW,297,0.0,3.0,47,0.00,,---,0.00,522.00,VWS V14.01,2013-09-29 19:21:00,
2013-09-29 15:26:00,73.6,52.7,30.14,South,184,1.0,3.0,48,0.00,,---,0.00,508.00,VWS V14.01,2013-09-29 19:26:00,
2013-09-29 15:30:00,72.8,53.1,30.15,ENE,74,0.0,4.0,50,0.00,,---,0.00,615.00,VWS V14.01,2013-09-29 19:30:00,
2013-09-29 15:31:00,73.8,51.2,30.13,South,188,0.0,3.0,45,0.00,,---,0.00,499.00,VWS V14.01,2013-09-29 19:31:00,
2013-09-29 15:36:00,73.8,52.9,30.13,South,188,0.0,0.0,48,0.00,,---,0.00,485.00,VWS V14.01,2013-09-29 19:36:00,
2013-09-29 15:41:00,74.0,54.2,30.13,ENE,75,0.0,1.0,50,0.00,,---,0.00,476.00,VWS V14.01,2013-09-29 19:41:00,
2013-09-29 15:46:00,73.9,53.0,30.13,East,82,0.0,1.0,48,0.00,,---,0.00,464.00,VWS V14.01,2013-09-29 19:46:00,
2013-09-29 15:48:00,73.9,51.8,30.13,East,82,0.0,1.0,46,0.00,,---,0.00,462.00,VWS V14.01,2013-09-29 19:48:00,
2013-09-29 15:53:00,74.0,52.5,30.13,East,82,0.0,1.0,47,0.00,,---,0.00,461.00,VWS V14.01,2013-09-29 19:53:00,
2013-09-29 15:58:00,74.4,52.3,30.13,East,82,0.0,1.0,46,0.00,,---,0.00,432.00,VWS V14.01,2013-09-29 19:58:00,
2013-09-29 16:00:00,73.2,51.8,30.14,WNW,297,3.0,4.0,47,0.00,,---,0.00,563.00,VWS V14.01,2013-09-29 20:00:00,
2013-09-29 16:03:00,74.7,53.2,30.13,East,82,0.0,0.0,47,0.00,,---,0.00,418.00,VWS V14.01,2013-09-29 20:03:00,
2013-09-29 16:08:00,74.9,53.9,30.12,East,82,0.0,0.0,48,0.00,,---,0.00,401.00,VWS V14.01,2013-09-29 20:08:00,
2013-09-29 16:13:00,74.9,53.9,30.12,East,86,0.0,0.0,48,0.00,,---,0.00,390.00,VWS V14.01,2013-09-29 20:13:00,
2013-09-29 16:18:00,74.6,54.8,30.12,East,86,0.0,0.0,50,0.00,,---,0.00,374.00,VWS V14.01,2013-09-29 20:18:00,
2013-09-29 16:23:00,74.5,53.0,30.12,East,86,0.0,0.0,47,0.00,,---,0.00,362.00,VWS V14.01,2013-09-29 20:23:00,
2013-09-29 16:28:00,74.3,52.2,30.11,West,278,1.0,4.0,46,0.00,,---,0.00,346.00,VWS V14.01,2013-09-29 20:28:00,
2013-09-29 16:30:00,73.8,51.8,30.14,South,188,0.0,3.0,46,0.00,,---,0.00,497.00,VWS V14.01,2013-09-29 20:30:00,
2013-09-29 16:32:00,74.1,52.0,30.11,West,278,0.0,0.0,46,0.00,,---,0.00,329.00,VWS V14.01,2013-09-29 20:32:00,
2013-09-29 16:37:00,74.0,52.5,30.11,West,278,1.0,1.0,47,0.00,,---,0.00,315.00,VWS V14.01,2013-09-29 20:37:00,
2013-09-29 16:42:00,73.4,53.7,30.11,West,278,0.0,1.0,50,0.00,,---,0.00,299.00,VWS V14.01,2013-09-29 20:42:00,
2013-09-29 16:47:00,72.9,54.3,30.11,West,278,0.0,1.0,52,0.00,,---,0.00,287.00,VWS V14.01,2013-09-29 20:47:00,
2013-09-29 16:52:00,72.5,53.4,30.11,West,278,0.0,1.0,51,0.00,,---,0.00,271.00,VWS V14.01,2013-09-29 20:52:00,
2013-09-29 16:57:00,72.2,55.2,30.11,West,278,0.0,1.0,55,0.00,,---,0.00,204.00,VWS V14.01,2013-09-29 20:57:00,
2013-09-29 17:00:00,74.7,53.2,30.13,East,82,0.0,1.0,47,0.00,,---,0.00,418.00,VWS V14.01,2013-09-29 21:00:00,
2013-09-29 17:02:00,71.9,55.4,30.11,West,278,0.0,1.0,56,0.00,,---,0.00,227.00,VWS V14.01,2013-09-29 21:02:00,
2013-09-29 17:07:00,71.8,56.2,30.11,West,278,0.0,0.0,58,0.00,,---,0.00,107.00,VWS V14.01,2013-09-29 21:07:00,
2013-09-29 17:12:00,71.3,56.7,30.11,West,278,0.0,0.0,60,0.00,,---,0.00,181.00,VWS V14.01,2013-09-29 21:12:00,
2013-09-29 17:17:00,70.4,56.8,30.10,West,278,0.0,0.0,62,0.00,,---,0.00,26.00,VWS V14.01,2013-09-29 21:17:00,
2013-09-29 17:22:00,69.4,56.7,30.11,West,278,0.0,0.0,64,0.00,,---,0.00,26.00,VWS V14.01,2013-09-29 21:22:00,
2013-09-29 17:27:00,68.2,56.8,30.10,West,278,0.0,0.0,67,0.00,,---,0.00,21.00,VWS V14.01,2013-09-29 21:27:00,
2013-09-29 17:30:00,74.2,52.1,30.11,West,278,0.0,4.0,46,0.00,,---,0.00,329.00,VWS V14.01,2013-09-29 21:30:00,
2013-09-29 17:32:00,67.1,56.2,30.11,West,278,0.0,0.0,68,0.00,,---,0.00,25.00,VWS V14.01,2013-09-29 21:32:00,
2013-09-29 17:37:00,66.2,56.1,30.10,West,278,0.0,0.0,70,0.00,,---,0.00,23.00,VWS V14.01,2013-09-29 21:37:00,
2013-09-29 17:42:00,65.6,56.3,30.11,West,278,0.0,0.0,72,0.00,,---,0.00,21.00,VWS V14.01,2013-09-29 21:42:00,
2013-09-29 17:47:00,65.0,56.5,30.10,West,278,0.0,0.0,74,0.00,,---,0.00,19.00,VWS V14.01,2013-09-29 21:47:00,
2013-09-29 17:52:00,64.6,56.1,30.10,West,278,0.0,0.0,74,0.00,,---,0.00,18.00,VWS V14.01,2013-09-29 21:52:00,
2013-09-29 17:57:00,64.1,56.0,30.10,West,278,0.0,0.0,75,0.00,,---,0.00,16.00,VWS V14.01,2013-09-29 21:57:00,
2013-09-29 18:00:00,71.9,55.4,30.11,West,278,0.0,1.0,56,0.00,,---,0.00,227.00,VWS V14.01,2013-09-29 22:00:00,
2013-09-29 18:02:00,63.3,55.2,30.10,West,278,0.0,0.0,75,0.00,,---,0.00,14.00,VWS V14.01,2013-09-29 22:02:00,
2013-09-29 18:07:00,62.9,55.2,30.10,West,278,0.0,0.0,76,0.00,,---,0.00,12.00,VWS V14.01,2013-09-29 22:07:00,
2013-09-29 18:12:00,62.2,55.3,30.10,West,278,0.0,0.0,78,0.00,,---,0.00,11.00,VWS V14.01,2013-09-29 22:12:00,
2013-09-29 18:17:00,61.6,54.7,30.10,West,278,0.0,0.0,78,0.00,,---,0.00,11.00,VWS V14.01,2013-09-29 22:17:00,
2013-09-29 18:22:00,61.3,54.7,30.11,West,278,0.0,0.0,79,0.00,,---,0.00,9.00,VWS V14.01,2013-09-29 22:22:00,
2013-09-29 18:27:00,60.9,55.0,30.11,West,278,0.0,0.0,81,0.00,,---,0.00,7.00,VWS V14.01,2013-09-29 22:27:00,
2013-09-29 18:30:00,67.1,56.2,30.11,West,278,0.0,0.0,68,0.00,,---,0.00,25.00,VWS V14.01,2013-09-29 22:30:00,
2013-09-29 18:32:00,60.5,54.7,30.11,West,278,0.0,0.0,81,0.00,,---,0.00,0.00,VWS V14.01,2013-09-29 22:32:00,
2013-09-29 18:37:00,59.9,54.4,30.11,West,278,0.0,0.0,82,0.00,,---,0.00,0.00,VWS V14.01,2013-09-29 22:37:00,
2013-09-29 18:42:00,59.4,54.2,30.11,West,278,0.0,0.0,83,0.00,,---,0.00,0.00,VWS V14.01,2013-09-29 22:42:00,
2013-09-29 18:47:00,58.9,54.4,30.11,West,278,0.0,0.0,85,0.00,,---,0.00,0.00,VWS V14.01,2013-09-29 22:47:00,
2013-09-29 18:52:00,58.6,54.1,30.11,West,278,0.0,0.0,85,0.00,,---,0.00,0.00,VWS V14.01,2013-09-29 22:52:00,
2013-09-29 18:57:00,58.3,54.1,30.11,West,278,0.0,0.0,86,0.00,,---,0.00,0.00,VWS V14.01,2013-09-29 22:57:00,
2013-09-29 19:00:00,63.3,55.2,30.10,West,278,0.0,0.0,75,0.00,,---,0.00,14.00,VWS V14.01,2013-09-29 23:00:00,
2013-09-29 19:02:00,58.0,53.8,30.11,West,278,0.0,0.0,86,0.00,,---,0.00,0.00,VWS V14.01,2013-09-29 23:02:00,
2013-09-29 19:07:00,57.8,53.7,30.11,West,278,0.0,0.0,86,0.00,,---,0.00,0.00,VWS V14.01,2013-09-29 23:07:00,
2013-09-29 19:12:00,57.8,53.3,30.11,West,278,0.0,3.0,85,0.00,,---,0.00,0.00,VWS V14.01,2013-09-29 23:12:00,
2013-09-29 19:17:00,57.9,53.4,30.12,West,278,0.0,3.0,85,0.00,,---,0.00,0.00,VWS V14.01,2013-09-29 23:17:00,
2013-09-29 19:22:00,57.8,53.3,30.12,West,278,0.0,3.0,85,0.00,,---,0.00,0.00,VWS V14.01,2013-09-29 23:22:00,
2013-09-29 19:27:00,57.7,52.9,30.12,West,278,0.0,3.0,84,0.00,,---,0.00,0.00,VWS V14.01,2013-09-29 23:27:00,
2013-09-29 19:30:00,60.5,54.7,30.11,West,278,0.0,0.0,81,0.00,,---,0.00,0.00,VWS V14.01,2013-09-29 23:30:00,
2013-09-29 19:33:00,57.5,52.7,30.12,West,278,0.0,3.0,84,0.00,,---,0.00,0.00,VWS V14.01,2013-09-29 23:33:00,
2013-09-29 19:37:00,57.4,52.0,30.12,West,278,0.0,3.0,82,0.00,,---,0.00,0.00,VWS V14.01,2013-09-29 23:37:00,
2013-09-29 19:43:00,57.9,51.8,30.13,West,278,0.0,3.0,80,0.00,,---,0.00,0.00,VWS V14.01,2013-09-29 23:43:00,
2013-09-29 19:48:00,58.5,51.7,30.13,West,278,0.0,3.0,78,0.00,,---,0.00,0.00,VWS V14.01,2013-09-29 23:48:00,
2013-09-29 19:53:00,59.2,51.7,30.13,West,278,0.0,3.0,76,0.00,,---,0.00,0.00,VWS V14.01,2013-09-29 23:53:00,
2013-09-29 19:58:00,59.5,51.6,30.13,West,278,0.0,3.0,75,0.00,,---,0.00,0.00,VWS V14.01,2013-09-29 23:58:00,
2013-09-29 20:00:00,58.0,53.8,30.11,West,278,0.0,0.0,86,0.00,,---,0.00,0.00,VWS V14.01,2013-09-30 00:00:00,
2013-09-29 20:03:00,59.8,51.5,30.13,West,278,0.0,0.0,74,0.00,,---,0.00,0.00,VWS V14.01,2013-09-30 00:03:00,
2013-09-29 20:08:00,59.8,51.5,30.13,West,278,0.0,0.0,74,0.00,,---,0.00,0.00,VWS V14.01,2013-09-30 00:08:00,
2013-09-29 20:13:00,59.5,51.9,30.13,West,278,0.0,0.0,76,0.00,,---,0.00,0.00,VWS V14.01,2013-09-30 00:13:00,
2013-09-29 20:18:00,59.0,52.2,30.13,West,278,0.0,0.0,78,0.00,,---,0.00,0.00,VWS V14.01,2013-09-30 00:18:00,
2013-09-29 20:23:00,58.3,51.8,30.13,West,278,0.0,2.0,79,0.00,,---,0.00,0.00,VWS V14.01,2013-09-30 00:23:00,
2013-09-29 20:28:00,57.5,51.7,30.13,West,278,0.0,2.0,81,0.00,,---,0.00,0.00,VWS V14.01,2013-09-30 00:28:00,
2013-09-29 20:30:00,57.5,52.7,30.12,West,278,0.0,3.0,84,0.00,,---,0.00,0.00,VWS V14.01,2013-09-30 00:30:00,
2013-09-29 20:33:00,56.8,51.4,30.13,West,278,0.0,0.0,82,0.00,,---,0.00,0.00,VWS V14.01,2013-09-30 00:33:00,
2013-09-29 20:38:00,56.3,51.5,30.13,West,278,0.0,0.0,84,0.00,,---,0.00,0.00,VWS V14.01,2013-09-30 00:38:00,
2013-09-29 20:43:00,55.8,51.4,30.13,West,278,0.0,0.0,85,0.00,,---,0.00,0.00,VWS V14.01,2013-09-30 00:43:00,
2013-09-29 20:48:00,55.3,51.2,30.13,West,278,0.0,0.0,86,0.00,,---,0.00,0.00,VWS V14.01,2013-09-30 00:48:00,
2013-09-29 20:53:00,54.8,51.0,30.13,West,278,0.0,0.0,87,0.00,,---,0.00,0.00,VWS V14.01,2013-09-30 00:53:00,
2013-09-29 20:58:00,54.4,50.6,30.14,West,278,0.0,0.0,87,0.00,,---,0.00,0.00,VWS V14.01,2013-09-30 00:58:00,
2013-09-29 21:00:00,59.7,51.4,30.13,West,278,0.0,3.0,74,0.00,,---,0.00,0.00,VWS V14.01,2013-09-30 01:00:00,
2013-09-29 21:03:00,54.1,50.6,30.13,West,278,0.0,0.0,88,0.00,,---,0.00,0.00,VWS V14.01,2013-09-30 01:03:00,
2013-09-29 21:08:00,53.7,50.5,30.14,West,278,0.0,0.0,89,0.00,,---,0.00,0.00,VWS V14.01,2013-09-30 01:08:00,
2013-09-29 21:13:00,53.4,50.2,30.14,West,278,0.0,0.0,89,0.00,,---,0.00,0.00,VWS V14.01,2013-09-30 01:13:00,
2013-09-29 21:18:00,53.1,50.0,30.13,West,278,0.0,0.0,89,0.00,,---,0.00,0.00,VWS V14.01,2013-09-30 01:18:00,
2013-09-29 21:23:00,52.8,50.0,30.13,West,278,0.0,0.0,90,0.00,,---,0.00,0.00,VWS V14.01,2013-09-30 01:23:00,
2013-09-29 21:28:00,52.6,49.8,30.13,West,278,0.0,0.0,90,0.00,,---,0.00,0.00,VWS V14.01,2013-09-30 01:28:00,
2013-09-29 21:30:00,56.9,51.5,30.13,West,278,0.0,2.0,82,0.00,,---,0.00,0.00,VWS V14.01,2013-09-30 01:30:00,
2013-09-29 21:33:00,52.4,49.8,30.13,West,278,0.0,0.0,91,0.00,,---,0.00,0.00,VWS V14.01,2013-09-30 01:33:00,
2013-09-29 21:38:00,52.1,49.6,30.13,West,278,0.0,0.0,91,0.00,,---,0.00,0.00,VWS V14.01,2013-09-30 01:38:00,
2013-09-29 21:43:00,51.8,49.3,30.13,West,278,0.0,0.0,91,0.00,,---,0.00,0.00,VWS V14.01,2013-09-30 01:43:00,
2013-09-29 21:48:00,51.5,49.0,30.13,West,278,0.0,0.0,91,0.00,,---,0.00,0.00,VWS V14.01,2013-09-30 01:48:00,
2013-09-29 21:53:00,51.3,49.1,30.13,West,278,0.0,0.0,92,0.00,,---,0.00,0.00,VWS V14.01,2013-09-30 01:53:00,
2013-09-29 21:58:00,51.2,49.0,30.13,West,278,0.0,0.0,92,0.00,,---,0.00,0.00,VWS V14.01,2013-09-30 01:58:00,
2013-09-29 22:00:00,54.1,50.6,30.13,West,278,0.0,0.0,88,0.00,,---,0.00,0.00,VWS V14.01,2013-09-30 02:00:00,
2013-09-29 22:03:00,51.0,48.8,30.13,West,278,0.0,0.0,92,0.00,,---,0.00,0.00,VWS V14.01,2013-09-30 02:03:00,
2013-09-29 22:08:00,50.7,48.5,30.13,West,278,0.0,0.0,92,0.00,,---,0.00,0.00,VWS V14.01,2013-09-30 02:08:00,
2013-09-29 22:13:00,50.5,48.6,30.14,West,278,0.0,0.0,93,0.00,,---,0.00,0.00,VWS V14.01,2013-09-30 02:13:00,
2013-09-29 22:18:00,50.3,48.4,30.14,West,278,0.0,0.0,93,0.00,,---,0.00,0.00,VWS V14.01,2013-09-30 02:18:00,
2013-09-29 22:23:00,50.1,48.2,30.14,West,278,0.0,0.0,93,0.00,,---,0.00,0.00,VWS V14.01,2013-09-30 02:23:00,
2013-09-29 22:28:00,50.0,48.1,30.14,West,278,0.0,0.0,93,0.00,,---,0.00,0.00,VWS V14.01,2013-09-30 02:28:00,
2013-09-29 22:30:00,52.3,49.8,30.13,West,278,0.0,0.0,91,0.00,,---,0.00,0.00,VWS V14.01,2013-09-30 02:30:00,
2013-09-29 22:33:00,49.8,47.9,30.14,West,278,0.0,0.0,93,0.00,,---,0.00,0.00,VWS V14.01,2013-09-30 02:33:00,
2013-09-29 22:38:00,49.6,48.0,30.14,West,278,0.0,0.0,94,0.00,,---,0.00,0.00,VWS V14.01,2013-09-30 02:38:00,
2013-09-29 22:43:00,49.5,47.8,30.14,West,278,0.0,0.0,94,0.00,,---,0.00,0.00,VWS V14.01,2013-09-30 02:43:00,
2013-09-29 22:48:00,49.3,47.7,30.14,West,278,0.0,0.0,94,0.00,,---,0.00,0.00,VWS V14.01,2013-09-30 02:48:00,
2013-09-29 22:53:00,49.2,47.5,30.14,West,278,0.0,0.0,94,0.00,,---,0.00,0.00,VWS V14.01,2013-09-30 02:53:00,
2013-09-29 22:58:00,49.1,47.5,30.14,West,278,0.0,0.0,94,0.00,,---,0.00,0.00,VWS V14.01,2013-09-30 02:58:00,
2013-09-29 23:00:00,51.0,48.8,30.13,West,278,0.0,0.0,92,0.00,,---,0.00,0.00,VWS V14.01,2013-09-30 03:00:00,
2013-09-29 23:03:00,49.0,47.3,30.14,West,278,0.0,0.0,94,0.00,,---,0.00,0.00,VWS V14.01,2013-09-30 03:03:00,
2013-09-29 23:08:00,48.7,47.0,30.14,West,278,0.0,0.0,94,0.00,,---,0.00,0.00,VWS V14.01,2013-09-30 03:08:00,
2013-09-29 23:13:00,48.6,47.0,30.14,West,278,0.0,0.0,94,0.00,,---,0.00,0.00,VWS V14.01,2013-09-30 03:13:00,
2013-09-29 23:18:00,48.5,46.9,30.14,West,278,0.0,0.0,94,0.00,,---,0.00,0.00,VWS V14.01,2013-09-30 03:18:00,
2013-09-29 23:23:00,48.3,46.9,30.14,West,278,0.0,0.0,95,0.00,,---,0.00,0.00,VWS V14.01,2013-09-30 03:23:00,
2013-09-29 23:28:00,48.2,46.8,30.14,West,278,0.0,0.0,95,0.00,,---,0.00,0.00,VWS V14.01,2013-09-30 03:28:00,
2013-09-29 23:30:00,49.9,48.0,30.14,West,278,0.0,0.0,93,0.00,,---,0.00,0.00,VWS V14.01,2013-09-30 03:30:00,
2013-09-29 23:33:00,48.1,46.7,30.14,West,278,0.0,0.0,95,0.00,,---,0.00,0.00,VWS V14.01,2013-09-30 03:33:00,
2013-09-29 23:38:00,47.9,46.5,30.14,West,278,0.0,0.0,95,0.00,,---,0.00,0.00,VWS V14.01,2013-09-30 03:38:00,
2013-09-29 23:43:00,47.8,46.4,30.14,West,278,0.0,0.0,95,0.00,,---,0.00,0.00,VWS V14.01,2013-09-30 03:43:00,
2013-09-29 23:48:00,47.6,46.2,30.14,West,278,0.0,0.0,95,0.00,,---,0.00,0.00,VWS V14.01,2013-09-30 03:48:00,
2013-09-29 23:53:00,47.4,46.0,30.14,West,278,0.0,0.0,95,0.00,,---,0.00,0.00,VWS V14.01,2013-09-30 03:53:00,
2013-09-29 23:58:00,47.3,45.9,30.14,West,278,0.0,0.0,95,0.00,,---,0.00,0.00,VWS V14.01,2013-09-30 03:58:00,